sensor_id;sensor_type;location;lat;lon;timestamp;temperature;humidity
30206;DHT22;17010;51.306;3.150;2023-07-31T03:15:51;16.50;99.90
30206;DHT22;17010;51.306;3.150;2023-07-31T03:18:58;16.50;99.90
30206;DHT22;17010;51.306;3.150;2023-07-31T03:21:57;16.50;99.90
30206;DHT22;17010;51.306;3.150;2023-07-31T03:36:12;16.40;99.90
30206;DHT22;17010;51.306;3.150;2023-07-31T06:06:50;17.00;99.90
30206;DHT22;17010;51.306;3.150;2023-07-31T06:09:17;17.00;99.90
30206;DHT22;17010;51.306;3.150;2023-07-31T06:11:49;17.00;99.90
30206;DHT22;17010;51.306;3.150;2023-07-31T06:16:57;17.00;99.90
30206;DHT22;17010;51.306;3.150;2023-07-31T06:19:23;17.10;99.90
30206;DHT22;17010;51.306;3.150;2023-07-31T06:21:50;17.00;99.90
30206;DHT22;17010;51.306;3.150;2023-07-31T06:24:18;17.10;99.90
30206;DHT22;17010;51.306;3.150;2023-07-31T06:31:59;17.10;99.90
30206;DHT22;17010;51.306;3.150;2023-07-31T06:34:26;17.10;99.90
30206;DHT22;17010;51.306;3.150;2023-07-31T06:36:59;17.10;99.90
30206;DHT22;17010;51.306;3.150;2023-07-31T06:39:53;17.20;99.90
30206;DHT22;17010;51.306;3.150;2023-07-31T06:43:15;17.20;99.90
30206;DHT22;17010;51.306;3.150;2023-07-31T06:46:54;17.20;99.90
30206;DHT22;17010;51.306;3.150;2023-07-31T06:49:28;17.20;99.90
30206;DHT22;17010;51.306;3.150;2023-07-31T06:52:05;17.20;99.90
30206;DHT22;17010;51.306;3.150;2023-07-31T06:54:42;17.20;99.90
30206;DHT22;17010;51.306;3.150;2023-07-31T06:57:21;17.20;99.90
30206;DHT22;17010;51.306;3.150;2023-07-31T07:03:03;17.30;99.90
30206;DHT22;17010;51.306;3.150;2023-07-31T07:06:11;17.30;99.90
30206;DHT22;17010;51.306;3.150;2023-07-31T07:09:18;17.30;99.90
30206;DHT22;17010;51.306;3.150;2023-07-31T07:12:04;17.40;99.90
30206;DHT22;17010;51.306;3.150;2023-07-31T07:15:13;17.40;99.90
30206;DHT22;17010;51.306;3.150;2023-07-31T07:24:12;17.60;99.90
30206;DHT22;17010;51.306;3.150;2023-07-31T07:27:09;17.60;99.90
30206;DHT22;17010;51.306;3.150;2023-07-31T07:30:22;17.60;99.90
30206;DHT22;17010;51.306;3.150;2023-07-31T07:33:25;17.60;99.90
30206;DHT22;17010;51.306;3.150;2023-07-31T07:36:17;17.70;99.90
30206;DHT22;17010;51.306;3.150;2023-07-31T07:38:45;17.70;99.90
30206;DHT22;17010;51.306;3.150;2023-07-31T07:41:12;17.80;99.90
30206;DHT22;17010;51.306;3.150;2023-07-31T07:43:38;17.80;99.90
30206;DHT22;17010;51.306;3.150;2023-07-31T07:46:05;17.80;99.90
30206;DHT22;17010;51.306;3.150;2023-07-31T07:48:32;17.60;99.90
30206;DHT22;17010;51.306;3.150;2023-07-31T07:59:04;17.70;99.90
30206;DHT22;17010;51.306;3.150;2023-07-31T08:04:21;17.70;99.90
30206;DHT22;17010;51.306;3.150;2023-07-31T08:06:48;17.70;99.90
30206;DHT22;17010;51.306;3.150;2023-07-31T08:09:17;17.60;99.90
30206;DHT22;17010;51.306;3.150;2023-07-31T08:11:44;17.70;99.90
30206;DHT22;17010;51.306;3.150;2023-07-31T08:14:11;17.70;99.90
30206;DHT22;17010;51.306;3.150;2023-07-31T08:16:39;17.80;99.90
30206;DHT22;17010;51.306;3.150;2023-07-31T08:19:08;17.90;99.90
30206;DHT22;17010;51.306;3.150;2023-07-31T08:21:34;17.90;99.90
30206;DHT22;17010;51.306;3.150;2023-07-31T08:24:03;17.90;99.90
30206;DHT22;17010;51.306;3.150;2023-07-31T08:26:29;17.90;99.90
30206;DHT22;17010;51.306;3.150;2023-07-31T08:28:57;17.90;99.90
30206;DHT22;17010;51.306;3.150;2023-07-31T08:31:25;17.90;99.90
30206;DHT22;17010;51.306;3.150;2023-07-31T08:33:52;17.90;99.90
30206;DHT22;17010;51.306;3.150;2023-07-31T08:36:19;18.00;99.90
30206;DHT22;17010;51.306;3.150;2023-07-31T08:38:45;18.00;99.90
30206;DHT22;17010;51.306;3.150;2023-07-31T08:41:12;18.00;99.90
30206;DHT22;17010;51.306;3.150;2023-07-31T08:43:47;18.10;99.90
30206;DHT22;17010;51.306;3.150;2023-07-31T08:46:14;18.10;99.90
30206;DHT22;17010;51.306;3.150;2023-07-31T08:48:48;18.10;99.90
30206;DHT22;17010;51.306;3.150;2023-07-31T08:51:38;18.20;99.90
30206;DHT22;17010;51.306;3.150;2023-07-31T08:54:30;18.30;99.90
30206;DHT22;17010;51.306;3.150;2023-07-31T08:57:07;18.50;99.90
30206;DHT22;17010;51.306;3.150;2023-07-31T09:00:02;18.60;99.90
30206;DHT22;17010;51.306;3.150;2023-07-31T09:06:10;18.80;99.90
30206;DHT22;17010;51.306;3.150;2023-07-31T09:13:04;18.80;99.90
30206;DHT22;17010;51.306;3.150;2023-07-31T09:23:13;18.90;99.90
30206;DHT22;17010;51.306;3.150;2023-07-31T09:26:10;18.90;99.90
30206;DHT22;17010;51.306;3.150;2023-07-31T09:38:31;19.00;99.90
30206;DHT22;17010;51.306;3.150;2023-07-31T09:42:37;19.10;99.90
30206;DHT22;17010;51.306;3.150;2023-07-31T09:45:29;19.10;99.90
30206;DHT22;17010;51.306;3.150;2023-07-31T09:55:18;19.40;99.90
30206;DHT22;17010;51.306;3.150;2023-07-31T09:58:33;19.50;99.90
30206;DHT22;17010;51.306;3.150;2023-07-31T10:01:58;19.40;99.90
30206;DHT22;17010;51.306;3.150;2023-07-31T10:05:12;19.50;99.90
30206;DHT22;17010;51.306;3.150;2023-07-31T10:08:53;19.50;99.90
30206;DHT22;17010;51.306;3.150;2023-07-31T10:12:12;19.50;99.90
30206;DHT22;17010;51.306;3.150;2023-07-31T10:18:50;19.50;99.90
30206;DHT22;17010;51.306;3.150;2023-07-31T10:21:22;19.50;99.90
30206;DHT22;17010;51.306;3.150;2023-07-31T10:24:15;19.60;99.90
30206;DHT22;17010;51.306;3.150;2023-07-31T10:26:54;19.70;99.90
30206;DHT22;17010;51.306;3.150;2023-07-31T10:29:49;19.80;99.90
30206;DHT22;17010;51.306;3.150;2023-07-31T10:32:43;19.90;99.90
30206;DHT22;17010;51.306;3.150;2023-07-31T10:35:41;19.80;99.90
30206;DHT22;17010;51.306;3.150;2023-07-31T10:38:50;19.90;99.90
30206;DHT22;17010;51.306;3.150;2023-07-31T10:44:38;19.90;99.90
30206;DHT22;17010;51.306;3.150;2023-07-31T10:47:25;20.00;99.90
30206;DHT22;17010;51.306;3.150;2023-07-31T10:50:20;20.00;99.90
30206;DHT22;17010;51.306;3.150;2023-07-31T10:53:28;20.10;99.90
30206;DHT22;17010;51.306;3.150;2023-07-31T10:56:22;20.30;99.90
30206;DHT22;17010;51.306;3.150;2023-07-31T10:59:34;20.30;99.90
30206;DHT22;17010;51.306;3.150;2023-07-31T11:02:43;20.50;99.90
30206;DHT22;17010;51.306;3.150;2023-07-31T11:05:55;20.50;99.90
30206;DHT22;17010;51.306;3.150;2023-07-31T11:08:54;20.50;99.90
30206;DHT22;17010;51.306;3.150;2023-07-31T11:11:23;20.40;99.90
30206;DHT22;17010;51.306;3.150;2023-07-31T11:14:06;20.40;99.90
30206;DHT22;17010;51.306;3.150;2023-07-31T11:16:56;20.30;99.90
30206;DHT22;17010;51.306;3.150;2023-07-31T11:19:42;20.20;99.90
30206;DHT22;17010;51.306;3.150;2023-07-31T11:22:08;20.30;99.90
30206;DHT22;17010;51.306;3.150;2023-07-31T11:24:39;20.30;99.90
30206;DHT22;17010;51.306;3.150;2023-07-31T11:27:07;20.30;99.90
30206;DHT22;17010;51.306;3.150;2023-07-31T11:29:35;20.60;99.90
30206;DHT22;17010;51.306;3.150;2023-07-31T11:32:02;21.10;99.90
30206;DHT22;17010;51.306;3.150;2023-07-31T11:34:29;21.60;99.90
30206;DHT22;17010;51.306;3.150;2023-07-31T11:36:57;21.80;99.90
30206;DHT22;17010;51.306;3.150;2023-07-31T11:39:28;21.80;99.90
30206;DHT22;17010;51.306;3.150;2023-07-31T11:42:04;21.70;99.90
30206;DHT22;17010;51.306;3.150;2023-07-31T11:44:40;21.50;99.90
30206;DHT22;17010;51.306;3.150;2023-07-31T11:47:27;21.40;99.90
30206;DHT22;17010;51.306;3.150;2023-07-31T11:50:41;21.40;99.90
30206;DHT22;17010;51.306;3.150;2023-07-31T11:56:57;21.10;99.90
30206;DHT22;17010;51.306;3.150;2023-07-31T11:59:38;21.00;99.90
30206;DHT22;17010;51.306;3.150;2023-07-31T12:02:30;20.90;99.90
30206;DHT22;17010;51.306;3.150;2023-07-31T12:06:12;20.80;99.90
30206;DHT22;17010;51.306;3.150;2023-07-31T12:08:46;20.60;99.90
30206;DHT22;17010;51.306;3.150;2023-07-31T12:11:18;20.50;99.90
30206;DHT22;17010;51.306;3.150;2023-07-31T12:14:29;20.50;99.90
30206;DHT22;17010;51.306;3.150;2023-07-31T12:17:25;20.30;99.90
30206;DHT22;17010;51.306;3.150;2023-07-31T12:19:58;20.20;99.90
30206;DHT22;17010;51.306;3.150;2023-07-31T12:22:26;20.20;99.90
30206;DHT22;17010;51.306;3.150;2023-07-31T12:25:00;20.10;99.90
30206;DHT22;17010;51.306;3.150;2023-07-31T12:27:51;20.10;99.90
30206;DHT22;17010;51.306;3.150;2023-07-31T12:30:48;20.00;99.90
30206;DHT22;17010;51.306;3.150;2023-07-31T12:33:36;20.00;99.90
30206;DHT22;17010;51.306;3.150;2023-07-31T12:36:21;20.00;99.90
30206;DHT22;17010;51.306;3.150;2023-07-31T12:39:17;20.10;99.90
30206;DHT22;17010;51.306;3.150;2023-07-31T12:42:31;20.30;99.90
30206;DHT22;17010;51.306;3.150;2023-07-31T12:45:18;20.60;99.90
30206;DHT22;17010;51.306;3.150;2023-07-31T12:47:51;20.60;99.90
30206;DHT22;17010;51.306;3.150;2023-07-31T12:50:44;20.60;99.90
30206;DHT22;17010;51.306;3.150;2023-07-31T12:53:33;20.50;99.90
30206;DHT22;17010;51.306;3.150;2023-07-31T12:56:04;20.30;99.90
30206;DHT22;17010;51.306;3.150;2023-07-31T12:58:35;20.20;99.90
30206;DHT22;17010;51.306;3.150;2023-07-31T13:01:30;20.10;99.90
30206;DHT22;17010;51.306;3.150;2023-07-31T13:04:49;20.00;99.90
30206;DHT22;17010;51.306;3.150;2023-07-31T13:07:35;19.90;99.90
30206;DHT22;17010;51.306;3.150;2023-07-31T13:14:10;19.70;99.90
30206;DHT22;17010;51.306;3.150;2023-07-31T13:17:18;19.60;99.90
30206;DHT22;17010;51.306;3.150;2023-07-31T13:20:34;19.60;99.90
30206;DHT22;17010;51.306;3.150;2023-07-31T13:23:44;19.60;99.90
30206;DHT22;17010;51.306;3.150;2023-07-31T13:30:11;19.50;99.90
30206;DHT22;17010;51.306;3.150;2023-07-31T13:36:48;19.50;99.90
30206;DHT22;17010;51.306;3.150;2023-07-31T13:39:58;19.50;99.90
30206;DHT22;17010;51.306;3.150;2023-07-31T13:43:06;19.50;99.90
30206;DHT22;17010;51.306;3.150;2023-07-31T13:49:16;19.50;99.90
30206;DHT22;17010;51.306;3.150;2023-07-31T13:52:35;19.40;99.90
30206;DHT22;17010;51.306;3.150;2023-07-31T13:59:27;19.30;99.90
30206;DHT22;17010;51.306;3.150;2023-07-31T14:01:55;19.30;99.90
30206;DHT22;17010;51.306;3.150;2023-07-31T14:23:38;19.10;99.90
30206;DHT22;17010;51.306;3.150;2023-07-31T14:26:26;19.20;99.90
30206;DHT22;17010;51.306;3.150;2023-07-31T14:32:22;19.20;99.90
30206;DHT22;17010;51.306;3.150;2023-07-31T14:35:51;19.30;99.90
30206;DHT22;17010;51.306;3.150;2023-07-31T14:51:23;19.30;99.90
30206;DHT22;17010;51.306;3.150;2023-07-31T14:54:57;19.30;99.90
